Time;durP1;ratioP1;P1;durP2;ratioP2;P2;SDS_P1;SDS_P2;PMS_P1;PMS_P2;Temp;Humidity;BMP_temperature;BMP_pressure;BME280_temperature;BME280_humidity;BME280_pressure;Samples;Min_cycle;Max_cycle;Signal;HPM_P1;HPM_P2
2021/09/12 00:01:44;;;;;;;7.27;3.93;;;14.50;99.90;;;;;;4124310;28;20045;-66
2021/09/12 00:03:46;;;;;;;8.10;4.77;;;14.50;99.90;;;;;;4124491;28;20073;-64
2021/09/12 00:05:47;;;;;;;7.83;4.23;;;14.50;99.90;;;;;;4123839;28;20046;-66
2021/09/12 00:07:48;;;;;;;7.90;4.07;;;14.50;99.90;;;;;;4124682;28;20030;-65
2021/09/12 00:09:49;;;;;;;6.90;4.17;;;14.50;99.90;;;;;;4123851;28;20026;-66
2021/09/12 00:11:50;;;;;;;9.63;4.33;;;14.50;99.90;;;;;;4128865;28;20076;-66
2021/09/12 00:13:52;;;;;;;7.23;4.27;;;14.50;99.90;;;;;;4139975;28;20038;-66
2021/09/12 00:15:53;;;;;;;6.90;4.80;;;14.50;99.90;;;;;;4140828;28;20041;-66
2021/09/12 00:17:54;;;;;;;10.20;4.77;;;14.50;99.90;;;;;;4140030;28;20022;-66
2021/09/12 00:19:55;;;;;;;5.43;3.67;;;14.50;99.90;;;;;;4138647;28;20042;-66
2021/09/12 00:21:56;;;;;;;9.27;4.40;;;14.50;99.90;;;;;;4140341;28;20096;-66
2021/09/12 00:23:57;;;;;;;9.32;4.00;;;14.40;99.90;;;;;;4140497;28;20041;-66
2021/09/12 00:25:58;;;;;;;8.53;3.80;;;14.50;99.90;;;;;;4140174;28;20812;-64
2021/09/12 00:27:59;;;;;;;4.97;3.63;;;14.50;99.90;;;;;;4140268;28;20030;-66
2021/09/12 00:30:01;;;;;;;6.23;4.17;;;14.60;99.90;;;;;;4139880;28;20100;-66
2021/09/12 00:32:02;;;;;;;6.03;4.10;;;14.50;99.90;;;;;;4140182;28;20026;-66
2021/09/12 00:34:03;;;;;;;6.10;4.10;;;14.50;99.90;;;;;;4140165;28;20025;-65
2021/09/12 00:36:04;;;;;;;4.50;3.73;;;14.50;99.90;;;;;;4139525;28;20080;-66
2021/09/12 00:38:08;;;;;;;8.10;4.90;;;14.50;99.90;;;;;;4140656;28;20030;-65
2021/09/12 00:40:11;;;;;;;8.80;6.20;;;14.40;99.90;;;;;;4140344;28;20079;-66
2021/09/12 00:42:12;;;;;;;10.77;6.13;;;14.40;99.90;;;;;;4126572;28;20490;-66
2021/09/12 00:44:13;;;;;;;9.50;6.00;;;14.40;99.90;;;;;;4123576;28;20085;-66
2021/09/12 00:46:14;;;;;;;12.60;7.13;;;14.30;99.90;;;;;;4124002;28;20050;-66
2021/09/12 00:48:16;;;;;;;13.67;6.97;;;14.30;99.90;;;;;;4123573;28;20092;-65
2021/09/12 00:50:17;;;;;;;10.03;5.90;;;14.30;99.90;;;;;;4123506;28;20038;-65
2021/09/12 00:52:20;;;;;;;10.93;5.37;;;14.30;99.90;;;;;;4124619;28;20030;-66
2021/09/12 00:54:22;;;;;;;9.33;5.07;;;14.20;99.90;;;;;;4123593;28;20034;-67
2021/09/12 00:56:23;;;;;;;11.90;5.07;;;14.20;99.90;;;;;;4123838;28;20490;-66
2021/09/12 00:58:25;;;;;;;6.80;4.57;;;14.20;99.90;;;;;;4123628;28;20360;-65
2021/09/12 01:00:26;;;;;;;11.90;5.23;;;14.20;99.90;;;;;;4123534;28;20085;-66
2021/09/12 01:02:27;;;;;;;10.53;4.27;;;14.20;99.90;;;;;;4133569;28;20567;-66
2021/09/12 01:04:29;;;;;;;7.50;4.50;;;14.20;99.90;;;;;;4138338;28;20049;-66
2021/09/12 01:06:31;;;;;;;6.77;3.97;;;14.20;99.90;;;;;;4138931;28;20096;-66
2021/09/12 01:08:32;;;;;;;6.83;4.60;;;14.20;99.90;;;;;;4139880;28;20433;-66
2021/09/12 01:10:33;;;;;;;6.27;4.03;;;14.20;99.90;;;;;;4140001;28;20092;-67
2021/09/12 01:12:35;;;;;;;8.50;4.07;;;14.10;99.90;;;;;;4140139;28;20441;-65
2021/09/12 01:14:38;;;;;;;15.63;5.37;;;14.10;99.90;;;;;;4139597;28;20042;-66
2021/09/12 01:16:39;;;;;;;7.53;4.70;;;14.00;99.90;;;;;;4139826;28;20026;-65
2021/09/12 01:18:40;;;;;;;5.73;4.07;;;14.10;99.90;;;;;;4139517;28;20426;-66
2021/09/12 01:20:42;;;;;;;8.10;4.43;;;14.00;99.90;;;;;;4139028;28;20469;-66
2021/09/12 01:22:45;;;;;;;7.53;4.37;;;14.00;99.90;;;;;;4139791;28;20099;-66
2021/09/12 01:24:46;;;;;;;6.07;4.13;;;14.00;99.90;;;;;;4139331;28;20971;-65
2021/09/12 01:26:47;;;;;;;5.63;3.90;;;14.00;99.90;;;;;;4139835;28;20034;-66
2021/09/12 01:28:49;;;;;;;5.27;3.50;;;14.00;99.90;;;;;;4139674;28;20033;-67
2021/09/12 01:30:50;;;;;;;6.60;3.93;;;14.00;99.90;;;;;;4137853;28;20038;-66
2021/09/12 01:32:51;;;;;;;8.57;4.03;;;14.00;99.90;;;;;;4139440;28;20037;-66
2021/09/12 01:34:52;;;;;;;7.50;4.50;;;14.00;99.90;;;;;;4139428;28;20674;-66
2021/09/12 01:36:53;;;;;;;6.17;3.83;;;14.00;99.90;;;;;;4139380;28;20022;-66
2021/09/12 01:38:55;;;;;;;7.10;4.20;;;14.00;99.90;;;;;;4139787;28;20034;-67
2021/09/12 01:40:56;;;;;;;7.23;3.80;;;13.90;99.90;;;;;;4139516;28;20041;-66
2021/09/12 01:43:00;;;;;;;7.03;3.70;;;13.90;99.90;;;;;;4139727;28;20038;-65
2021/09/12 01:45:01;;;;;;;8.40;4.83;;;13.90;99.90;;;;;;4138958;28;20046;-65
2021/09/12 01:47:02;;;;;;;8.53;3.83;;;13.90;99.90;;;;;;4139782;28;20026;-65
2021/09/12 01:49:05;;;;;;;7.50;4.00;;;13.90;99.90;;;;;;4139044;28;20038;-65
2021/09/12 01:51:07;;;;;;;8.40;4.43;;;13.90;99.90;;;;;;4138801;28;20034;-66
2021/09/12 01:53:08;;;;;;;6.87;4.20;;;13.80;99.90;;;;;;4139307;28;20084;-66
2021/09/12 01:55:10;;;;;;;5.53;3.93;;;13.80;99.90;;;;;;4138919;28;20080;-66
2021/09/12 01:57:11;;;;;;;5.63;4.17;;;13.80;99.90;;;;;;4138998;28;20518;-65
2021/09/12 01:59:12;;;;;;;6.67;4.43;;;13.80;99.90;;;;;;4139564;28;20473;-66
2021/09/12 02:01:13;;;;;;;5.63;3.90;;;13.80;99.90;;;;;;4139426;28;20578;-66
2021/09/12 02:03:14;;;;;;;5.80;4.10;;;13.80;99.90;;;;;;4139094;28;20544;-65
2021/09/12 02:05:16;;;;;;;5.27;4.00;;;13.80;99.90;;;;;;4138993;28;20054;-67
2021/09/12 02:07:17;;;;;;;7.10;4.30;;;13.80;99.90;;;;;;4139205;28;20857;-66
2021/09/12 02:09:18;;;;;;;6.57;3.87;;;13.80;99.90;;;;;;4139466;28;20034;-66
2021/09/12 02:11:20;;;;;;;6.30;3.90;;;13.70;99.90;;;;;;4139099;28;20026;-65
2021/09/12 02:13:21;;;;;;;5.33;3.93;;;13.70;99.90;;;;;;4138936;28;20084;-67
2021/09/12 02:15:22;;;;;;;5.93;4.17;;;13.70;99.90;;;;;;4138766;28;20076;-65
2021/09/12 02:17:23;;;;;;;8.40;3.97;;;13.70;99.90;;;;;;4138748;28;20727;-67
2021/09/12 02:19:25;;;;;;;5.07;3.53;;;13.70;99.90;;;;;;4138717;28;20030;-66
2021/09/12 02:21:26;;;;;;;7.00;4.43;;;13.60;99.90;;;;;;4138940;28;20443;-63
2021/09/12 02:23:27;;;;;;;5.13;3.67;;;13.60;99.90;;;;;;4138959;28;20093;-66
2021/09/12 02:25:30;;;;;;;9.27;4.13;;;13.60;99.90;;;;;;4124330;28;20054;-66
2021/09/12 02:27:31;;;;;;;5.67;4.00;;;13.60;99.90;;;;;;4122654;28;20030;-66
2021/09/12 02:29:32;;;;;;;5.37;4.20;;;13.60;99.90;;;;;;4121527;28;20050;-64
2021/09/12 02:31:33;;;;;;;7.47;4.37;;;13.60;99.90;;;;;;4122469;28;20042;-65
2021/09/12 02:33:34;;;;;;;7.00;4.13;;;13.60;99.90;;;;;;4122559;28;20038;-66
2021/09/12 02:35:35;;;;;;;8.00;4.50;;;13.50;99.90;;;;;;4123741;28;20081;-65
2021/09/12 02:37:36;;;;;;;6.43;4.77;;;13.50;99.90;;;;;;4125507;28;20101;-64
2021/09/12 02:39:37;;;;;;;7.40;4.17;;;13.50;99.90;;;;;;4125384;28;20034;-66
2021/09/12 02:41:38;;;;;;;7.03;4.43;;;13.50;99.90;;;;;;4125962;28;20038;-66
2021/09/12 02:43:40;;;;;;;7.83;4.50;;;13.40;99.90;;;;;;4125669;28;20042;-66
2021/09/12 02:45:41;;;;;;;6.47;4.23;;;13.40;99.90;;;;;;4125255;28;20458;-67
2021/09/12 02:47:42;;;;;;;6.40;3.80;;;13.40;99.90;;;;;;4126169;28;20038;-66
2021/09/12 02:49:43;;;;;;;8.67;4.90;;;13.40;99.90;;;;;;4125671;28;20026;-66
2021/09/12 02:51:44;;;;;;;7.40;4.67;;;13.40;99.90;;;;;;4125072;28;20058;-66
2021/09/12 02:53:45;;;;;;;6.73;4.90;;;13.30;99.90;;;;;;4125532;28;20092;-66
2021/09/12 02:55:46;;;;;;;10.60;4.83;;;13.20;99.90;;;;;;4125142;28;20060;-66
2021/09/12 02:57:47;;;;;;;8.97;5.07;;;13.00;99.90;;;;;;4125349;28;20089;-66
2021/09/12 02:59:48;;;;;;;9.13;5.57;;;12.90;99.90;;;;;;4125010;28;20046;-67
2021/09/12 03:01:50;;;;;;;10.67;5.50;;;12.80;99.90;;;;;;4125471;28;20088;-65
2021/09/12 03:03:51;;;;;;;10.27;6.00;;;12.70;99.90;;;;;;4125918;28;20454;-67
2021/09/12 03:05:52;;;;;;;12.77;5.90;;;12.70;99.90;;;;;;4124850;28;20043;-66
2021/09/12 03:07:53;;;;;;;14.57;5.60;;;12.60;99.90;;;;;;4125410;28;20108;-66
2021/09/12 03:09:54;;;;;;;11.37;7.10;;;12.60;99.90;;;;;;4125137;28;20085;-67
2021/09/12 03:11:55;;;;;;;10.97;6.77;;;12.50;99.90;;;;;;4125234;28;20042;-66
2021/09/12 03:13:56;;;;;;;11.47;6.23;;;12.50;99.90;;;;;;4125095;28;20043;-66
2021/09/12 03:15:57;;;;;;;8.33;5.57;;;12.40;99.90;;;;;;4124535;28;20054;-67
2021/09/12 03:17:59;;;;;;;12.57;7.03;;;12.40;99.90;;;;;;4125052;28;20034;-64
2021/09/12 03:20:00;;;;;;;8.50;6.50;;;12.40;99.90;;;;;;4124992;28;20077;-65
2021/09/12 03:22:01;;;;;;;19.27;6.70;;;12.40;99.90;;;;;;4125395;28;20561;-66
2021/09/12 03:24:02;;;;;;;8.47;5.40;;;12.30;99.90;;;;;;4124561;28;20180;-67
2021/09/12 03:26:03;;;;;;;12.47;7.30;;;12.30;99.90;;;;;;4125129;28;20537;-66
2021/09/12 03:28:05;;;;;;;10.07;6.83;;;12.30;99.90;;;;;;4125040;28;20569;-66
2021/09/12 03:30:07;;;;;;;13.53;7.07;;;12.30;99.90;;;;;;4124995;28;20089;-66
2021/09/12 03:32:08;;;;;;;17.63;8.20;;;12.30;99.90;;;;;;4124906;28;20088;-67
2021/09/12 03:34:09;;;;;;;10.13;7.07;;;12.30;99.90;;;;;;4124559;28;20124;-64
2021/09/12 03:36:10;;;;;;;13.40;7.27;;;12.30;99.90;;;;;;4124634;28;20565;-66
2021/09/12 03:38:12;;;;;;;11.17;6.77;;;12.20;99.90;;;;;;4124548;28;20096;-66
2021/09/12 03:40:13;;;;;;;11.20;6.20;;;12.10;99.90;;;;;;4125104;28;20100;-66
2021/09/12 03:42:14;;;;;;;11.40;6.40;;;12.10;99.90;;;;;;4124723;28;20487;-66
2021/09/12 03:44:17;;;;;;;14.77;6.60;;;12.00;99.90;;;;;;4125008;28;20042;-67
2021/09/12 03:46:18;;;;;;;12.33;6.30;;;11.90;99.90;;;;;;4123436;28;20046;-67
2021/09/12 03:48:19;;;;;;;9.47;6.17;;;11.70;99.90;;;;;;4124524;28;20093;-66
2021/09/12 03:50:20;;;;;;;15.73;6.87;;;11.60;99.90;;;;;;4124016;28;20092;-67
2021/09/12 03:52:21;;;;;;;13.40;7.50;;;11.50;99.90;;;;;;4124759;28;20026;-66
2021/09/12 03:54:22;;;;;;;17.00;8.03;;;11.50;99.90;;;;;;4124263;28;20797;-64
2021/09/12 03:56:23;;;;;;;12.23;6.90;;;11.50;99.90;;;;;;4127970;28;20033;-67
2021/09/12 03:58:24;;;;;;;11.90;7.03;;;11.40;99.90;;;;;;4140065;28;20631;-67
2021/09/12 04:00:25;;;;;;;11.13;6.70;;;11.40;99.90;;;;;;4138969;28;20034;-68
2021/09/12 04:02:27;;;;;;;19.00;7.87;;;11.40;99.90;;;;;;4140634;28;20037;-67
2021/09/12 04:04:28;;;;;;;9.30;7.03;;;11.40;99.90;;;;;;4140546;28;20030;-66
2021/09/12 04:06:29;;;;;;;11.53;7.23;;;11.40;99.90;;;;;;4138679;28;20096;-66
2021/09/12 04:08:30;;;;;;;17.73;7.57;;;11.40;99.90;;;;;;4140052;28;20038;-68
2021/09/12 04:10:31;;;;;;;10.93;6.20;;;11.40;99.90;;;;;;4140469;28;20092;-66
2021/09/12 04:12:32;;;;;;;12.00;6.70;;;11.30;99.90;;;;;;4140228;28;20041;-66
2021/09/12 04:14:34;;;;;;;15.03;7.03;;;11.30;99.90;;;;;;4141191;28;20033;-67
2021/09/12 04:16:35;;;;;;;9.63;5.83;;;11.30;99.90;;;;;;4138130;28;20042;-65
2021/09/12 04:18:36;;;;;;;11.90;7.23;;;11.30;99.90;;;;;;4140681;28;20050;-67
2021/09/12 04:20:37;;;;;;;10.90;6.60;;;11.50;99.90;;;;;;4139764;28;20076;-65
2021/09/12 04:22:39;;;;;;;14.03;7.30;;;11.60;99.90;;;;;;4140394;28;20418;-66
2021/09/12 04:24:40;;;;;;;11.87;7.30;;;11.80;99.90;;;;;;4140060;28;20072;-66
2021/09/12 04:26:41;;;;;;;15.10;8.73;;;12.00;99.90;;;;;;4140098;28;20490;-67
2021/09/12 04:28:43;;;;;;;11.27;7.17;;;12.20;99.90;;;;;;4140107;28;20848;-67
2021/09/12 04:30:44;;;;;;;12.37;7.40;;;12.50;99.90;;;;;;4140299;28;20096;-66
2021/09/12 04:32:45;;;;;;;13.27;7.83;;;12.80;99.90;;;;;;4140036;28;20034;-66
2021/09/12 04:34:47;;;;;;;12.27;6.90;;;13.30;99.90;;;;;;4139745;28;20030;-67
2021/09/12 04:36:48;;;;;;;12.17;7.17;;;13.80;99.90;;;;;;4140028;28;20041;-67
2021/09/12 04:38:49;;;;;;;11.67;6.87;;;14.20;99.90;;;;;;4139931;28;20091;-67
2021/09/12 04:40:51;;;;;;;11.30;6.93;;;14.50;99.90;;;;;;4140425;28;20635;-65
2021/09/12 04:42:52;;;;;;;12.47;6.87;;;14.80;99.90;;;;;;4137920;28;20042;-65
2021/09/12 04:44:53;;;;;;;15.27;7.37;;;15.10;99.90;;;;;;4139621;28;20568;-64
2021/09/12 04:46:54;;;;;;;13.90;6.80;;;15.40;99.90;;;;;;4139509;28;20037;-65
2021/09/12 04:48:55;;;;;;;11.20;6.40;;;15.70;99.90;;;;;;4140241;28;20026;-66
2021/09/12 04:50:56;;;;;;;10.10;7.13;;;16.10;99.90;;;;;;4139556;28;20092;-65
2021/09/12 04:52:57;;;;;;;11.27;7.22;;;16.30;99.90;;;;;;4139419;28;20038;-65
2021/09/12 04:54:59;;;;;;;12.38;6.45;;;16.40;99.90;;;;;;4139674;28;20084;-65
2021/09/12 04:57:00;;;;;;;12.05;5.85;;;16.60;99.90;;;;;;4139314;28;20014;-65
2021/09/12 04:59:01;;;;;;;10.15;6.35;;;16.80;99.90;;;;;;4139448;28;20033;-65
2021/09/12 05:01:03;;;;;;;12.25;6.13;;;16.90;99.90;;;;;;4139101;28;20029;-67
2021/09/12 05:03:04;;;;;;;11.73;6.75;;;17.20;99.90;;;;;;4138823;28;20461;-66
2021/09/12 05:05:06;;;;;;;15.75;6.47;;;17.50;99.90;;;;;;4139436;28;20871;-66
2021/09/12 05:07:07;;;;;;;13.00;6.47;;;17.70;99.90;;;;;;4139263;28;20034;-68
2021/09/12 05:09:08;;;;;;;8.45;5.47;;;17.90;99.90;;;;;;4138614;28;20508;-66
2021/09/12 05:11:09;;;;;;;12.68;7.68;;;18.40;99.90;;;;;;4139640;28;20038;-67
2021/09/12 05:13:10;;;;;;;13.73;7.20;;;18.70;99.90;;;;;;4139492;28;20088;-65
2021/09/12 05:15:12;;;;;;;10.75;7.18;;;18.80;99.90;;;;;;4139317;28;20088;-65
2021/09/12 05:17:13;;;;;;;10.95;6.70;;;18.30;99.90;;;;;;4139037;28;20116;-65
2021/09/12 05:19:14;;;;;;;13.90;8.15;;;17.80;99.90;;;;;;4138417;28;20041;-64
2021/09/12 05:21:15;;;;;;;12.05;7.28;;;17.60;99.90;;;;;;4139115;28;20034;-66
2021/09/12 05:23:16;;;;;;;14.07;9.05;;;17.50;99.90;;;;;;4139200;28;20080;-64
2021/09/12 05:25:17;;;;;;;12.40;7.95;;;17.50;99.90;;;;;;4139074;28;20034;-64
2021/09/12 05:27:20;;;;;;;19.27;8.48;;;17.50;99.90;;;;;;4139617;28;20454;-65
2021/09/12 05:29:23;;;;;;;10.23;7.35;;;17.70;99.90;;;;;;4139142;28;20530;-66
2021/09/12 05:31:24;;;;;;;20.02;7.75;;;18.30;99.90;;;;;;4139055;28;20088;-66
2021/09/12 05:33:25;;;;;;;11.95;7.65;;;18.70;99.90;;;;;;4139766;28;20030;-66
2021/09/12 05:35:26;;;;;;;14.23;8.02;;;19.00;99.90;;;;;;4138934;28;20038;-66
2021/09/12 05:37:27;;;;;;;13.02;7.72;;;18.90;99.90;;;;;;4139002;28;20096;-65
2021/09/12 05:39:29;;;;;;;13.38;8.35;;;19.10;99.80;;;;;;4136146;28;20081;-66
2021/09/12 05:41:30;;;;;;;14.45;7.38;;;19.40;99.50;;;;;;4123369;28;20027;-66
2021/09/12 05:43:31;;;;;;;16.80;8.77;;;19.60;98.80;;;;;;4123076;28;20035;-66
2021/09/12 05:45:32;;;;;;;11.98;7.32;;;19.80;98.50;;;;;;4122048;28;20038;-65
2021/09/12 05:47:34;;;;;;;14.27;7.18;;;19.70;98.30;;;;;;4122308;28;20034;-65
2021/09/12 05:49:36;;;;;;;13.73;7.13;;;19.70;98.20;;;;;;4124668;28;20101;-65
2021/09/12 05:51:37;;;;;;;14.15;7.47;;;19.80;98.10;;;;;;4122469;28;20056;-65
2021/09/12 05:53:38;;;;;;;10.30;6.95;;;19.80;97.90;;;;;;4129142;28;20088;-65
2021/09/12 05:55:39;;;;;;;13.18;6.93;;;19.70;97.70;;;;;;4135453;28;20045;-65
2021/09/12 05:57:40;;;;;;;13.02;6.90;;;19.70;97.40;;;;;;4137426;28;20105;-64
2021/09/12 05:59:43;;;;;;;11.27;8.02;;;19.70;97.30;;;;;;4137383;28;20446;-66
2021/09/12 06:01:44;;;;;;;17.70;7.68;;;19.60;97.20;;;;;;4127976;28;20053;-65
2021/09/12 06:03:45;;;;;;;13.73;7.78;;;19.50;97.30;;;;;;4136623;28;20108;-65
2021/09/12 06:05:46;;;;;;;10.80;7.03;;;19.50;97.40;;;;;;4136501;28;20049;-66
2021/09/12 06:07:48;;;;;;;14.02;6.65;;;19.40;97.30;;;;;;4137241;28;20563;-65
2021/09/12 06:09:49;;;;;;;12.52;7.15;;;19.70;97.20;;;;;;4136704;28;20045;-66
2021/09/12 06:11:51;;;;;;;11.98;7.20;;;19.70;96.90;;;;;;4136054;28;20045;-66
2021/09/12 06:13:52;;;;;;;10.63;7.53;;;19.80;96.90;;;;;;4134976;28;20105;-65
2021/09/12 06:15:53;;;;;;;8.82;6.07;;;19.80;96.70;;;;;;4138774;28;20080;-65
2021/09/12 06:17:54;;;;;;;9.65;6.03;;;20.10;96.70;;;;;;4141098;28;20037;-67
2021/09/12 06:19:55;;;;;;;11.90;7.72;;;20.70;96.30;;;;;;4141182;28;20041;-66
2021/09/12 06:21:56;;;;;;;10.98;6.70;;;21.40;95.50;;;;;;4140740;28;20099;-66
2021/09/12 06:23:58;;;;;;;8.90;5.57;;;21.80;94.90;;;;;;4141898;28;20163;-66
2021/09/12 06:25:59;;;;;;;9.30;6.40;;;22.20;94.30;;;;;;4141549;28;20096;-66
2021/09/12 06:28:01;;;;;;;8.82;5.88;;;22.70;93.80;;;;;;4141476;28;20576;-65
2021/09/12 06:30:03;;;;;;;8.50;6.05;;;23.10;93.30;;;;;;4140607;28;20042;-65
2021/09/12 06:32:04;;;;;;;16.60;7.20;;;23.30;92.80;;;;;;4141025;28;20546;-66
2021/09/12 06:34:05;;;;;;;11.05;6.10;;;23.60;92.30;;;;;;4141330;28;20089;-64
2021/09/12 06:36:06;;;;;;;11.02;5.90;;;23.80;92.00;;;;;;4141545;28;20165;-64
2021/09/12 06:38:07;;;;;;;10.32;5.80;;;23.80;91.70;;;;;;4139607;28;20088;-63
2021/09/12 06:40:11;;;;;;;7.53;5.22;;;23.80;91.60;;;;;;4140978;28;20038;-63
2021/09/12 06:42:12;;;;;;;9.98;5.93;;;23.60;91.50;;;;;;4141684;28;20426;-65
2021/09/12 06:44:13;;;;;;;8.63;5.43;;;23.60;91.50;;;;;;4141580;28;20026;-65
2021/09/12 06:46:14;;;;;;;11.05;6.55;;;23.70;91.30;;;;;;4141553;28;20104;-66
2021/09/12 06:48:16;;;;;;;10.00;5.35;;;23.80;91.10;;;;;;4141002;28;20034;-70
2021/09/12 06:50:17;;;;;;;9.75;5.32;;;23.60;91.00;;;;;;4141445;28;20038;-66
2021/09/12 06:52:18;;;;;;;10.18;5.18;;;23.30;91.20;;;;;;4141166;28;20046;-64
2021/09/12 06:54:19;;;;;;;10.13;5.47;;;23.00;91.30;;;;;;4141473;28;20708;-65
2021/09/12 06:56:20;;;;;;;8.30;5.38;;;22.90;91.40;;;;;;4141015;28;20104;-68
2021/09/12 06:58:21;;;;;;;23.90;6.25;;;22.70;91.40;;;;;;4141481;28;20096;-68
2021/09/12 07:00:22;;;;;;;8.45;5.68;;;23.00;91.20;;;;;;4140990;28;20140;-67
2021/09/12 07:02:24;;;;;;;10.73;5.75;;;23.30;91.00;;;;;;4141465;28;20068;-69
2021/09/12 07:04:25;;;;;;;10.05;5.45;;;23.20;90.80;;;;;;4140986;28;20026;-72
2021/09/12 07:06:26;;;;;;;8.48;5.68;;;23.00;91.10;;;;;;4140896;28;20108;-78
2021/09/12 07:08:27;;;;;;;11.18;6.20;;;23.00;91.10;;;;;;4141117;28;20445;-74
2021/09/12 07:10:28;;;;;;;7.20;5.05;;;23.10;91.10;;;;;;4141423;28;20034;-68
2021/09/12 07:12:29;;;;;;;9.10;5.05;;;23.10;91.10;;;;;;4140317;28;20105;-70
2021/09/12 07:14:30;;;;;;;7.82;4.57;;;23.10;91.30;;;;;;4140506;28;20034;-72
2021/09/12 07:16:33;;;;;;;12.00;6.20;;;23.30;91.30;;;;;;4141156;28;20038;-70
2021/09/12 07:18:34;;;;;;;6.93;4.50;;;23.30;91.30;;;;;;4140994;28;20022;-72
2021/09/12 07:20:35;;;;;;;9.25;4.60;;;23.20;91.20;;;;;;4140089;28;20076;-67
2021/09/12 07:22:36;;;;;;;8.07;5.05;;;23.40;91.00;;;;;;4137487;28;20030;-69
2021/09/12 07:24:39;;;;;;;11.18;5.07;;;23.40;91.00;;;;;;4137919;28;20026;-71
2021/09/12 07:26:40;;;;;;;6.28;4.07;;;23.60;90.70;;;;;;4140388;28;20042;-69
2021/09/12 07:28:43;;;;;;;9.48;4.38;;;23.50;90.80;;;;;;4141462;28;20065;-69
2021/09/12 07:30:44;;;;;;;6.65;4.60;;;23.40;90.90;;;;;;4140349;28;20084;-70
2021/09/12 07:32:46;;;;;;;6.15;4.40;;;23.50;90.80;;;;;;4140754;28;20389;-65
2021/09/12 07:34:47;;;;;;;7.50;4.45;;;23.60;90.70;;;;;;4140659;28;20026;-70
2021/09/12 07:36:48;;;;;;;6.68;4.45;;;23.60;90.50;;;;;;4139064;28;20046;-66
2021/09/12 07:38:49;;;;;;;10.30;4.82;;;23.60;90.40;;;;;;4140642;28;20034;-68
2021/09/12 07:40:50;;;;;;;7.20;3.92;;;23.70;90.20;;;;;;4140131;28;20442;-68
2021/09/12 07:42:51;;;;;;;6.47;3.63;;;23.60;90.00;;;;;;4141008;28;20042;-64
2021/09/12 07:44:53;;;;;;;7.28;4.10;;;23.50;89.90;;;;;;4140526;28;20026;-67
2021/09/12 07:46:54;;;;;;;5.72;3.92;;;23.60;90.00;;;;;;4139732;28;20042;-67
2021/09/12 07:48:56;;;;;;;6.50;4.30;;;23.00;90.00;;;;;;4140568;28;20084;-68
2021/09/12 07:50:57;;;;;;;6.63;4.25;;;22.70;90.30;;;;;;4138599;28;20076;-67
2021/09/12 07:52:59;;;;;;;7.55;5.20;;;22.60;90.60;;;;;;4136783;28;20441;-69
2021/09/12 07:55:00;;;;;;;6.65;4.85;;;22.30;90.80;;;;;;4136348;28;20808;-68
2021/09/12 07:57:01;;;;;;;11.23;5.47;;;22.10;91.00;;;;;;4134322;28;20083;-68
2021/09/12 07:59:02;;;;;;;10.45;5.82;;;22.00;91.00;;;;;;4135354;28;20026;-68
2021/09/12 08:01:04;;;;;;;8.02;5.88;;;21.90;91.20;;;;;;4135226;28;20158;-68
2021/09/12 08:03:05;;;;;;;7.50;5.18;;;21.90;91.40;;;;;;4134937;28;20049;-65
2021/09/12 08:05:07;;;;;;;7.57;5.30;;;21.80;91.70;;;;;;4134798;28;20131;-66
2021/09/12 08:07:08;;;;;;;9.52;5.80;;;21.60;92.00;;;;;;4137868;28;20061;-67
2021/09/12 08:09:09;;;;;;;8.30;5.55;;;21.50;92.20;;;;;;4139902;28;20030;-67
2021/09/12 08:11:10;;;;;;;10.23;5.53;;;21.70;92.30;;;;;;4140329;28;20348;-67
2021/09/12 08:13:11;;;;;;;8.68;5.30;;;21.80;92.20;;;;;;4136958;28;20092;-67
2021/09/12 08:15:13;;;;;;;9.20;6.00;;;21.90;92.10;;;;;;4135686;28;20828;-68
2021/09/12 08:17:14;;;;;;;10.57;5.97;;;22.00;92.10;;;;;;4135134;28;20902;-67
2021/09/12 08:19:15;;;;;;;8.23;5.50;;;22.10;91.90;;;;;;4134666;28;20041;-68
2021/09/12 08:21:16;;;;;;;9.85;4.93;;;22.20;91.80;;;;;;4135733;28;20880;-67
2021/09/12 08:23:17;;;;;;;13.60;5.20;;;22.30;91.80;;;;;;4135516;28;20173;-69
2021/09/12 08:25:18;;;;;;;8.82;5.18;;;22.30;91.40;;;;;;4135433;28;20497;-68
2021/09/12 08:27:20;;;;;;;9.23;5.15;;;22.20;91.50;;;;;;4132577;28;20045;-67
2021/09/12 08:29:21;;;;;;;9.85;5.93;;;22.10;91.60;;;;;;4134463;28;20516;-67
2021/09/12 08:31:22;;;;;;;11.35;5.90;;;22.10;91.70;;;;;;4134975;28;20433;-68
2021/09/12 08:33:23;;;;;;;7.57;5.40;;;22.40;91.50;;;;;;4134116;28;20034;-66
2021/09/12 08:35:27;;;;;;;6.22;4.63;;;22.60;91.30;;;;;;4134172;28;20441;-67
2021/09/12 08:37:28;;;;;;;6.90;4.65;;;23.00;91.10;;;;;;4137252;28;20141;-67
2021/09/12 08:39:29;;;;;;;7.20;4.15;;;23.30;90.80;;;;;;4137875;28;20524;-67
2021/09/12 08:41:31;;;;;;;8.50;4.10;;;23.50;90.50;;;;;;4138598;28;20034;-68
2021/09/12 08:43:33;;;;;;;9.35;4.13;;;23.90;90.10;;;;;;4134397;28;20038;-68
2021/09/12 08:45:34;;;;;;;5.80;3.55;;;23.90;89.40;;;;;;4134237;28;20038;-67
2021/09/12 08:47:36;;;;;;;7.05;4.28;;;24.00;89.00;;;;;;4135293;28;20050;-67
2021/09/12 08:49:37;;;;;;;7.05;4.47;;;24.30;88.80;;;;;;4134054;28;20042;-68
2021/09/12 08:51:38;;;;;;;7.93;4.38;;;24.30;88.10;;;;;;4134786;28;20069;-68
2021/09/12 08:53:40;;;;;;;6.88;4.00;;;24.00;87.60;;;;;;4133924;28;20601;-68
2021/09/12 08:55:42;;;;;;;5.85;3.83;;;23.60;88.30;;;;;;4134371;28;20030;-68
2021/09/12 08:57:54;;;;;;;5.85;3.67;;;23.30;88.80;;;;;;4134715;28;20029;-66
2021/09/12 08:59:55;;;;;;;8.00;3.92;;;23.10;88.30;;;;;;4134411;28;20073;-67
2021/09/12 09:01:59;;;;;;;10.10;4.10;;;23.00;89.40;;;;;;4133596;28;20025;-67
2021/09/12 09:04:02;;;;;;;5.90;3.70;;;22.80;89.50;;;;;;4134176;28;20049;-68
2021/09/12 09:06:15;;;;;;;6.15;3.95;;;22.90;89.40;;;;;;4133529;28;20045;-68
2021/09/12 09:08:17;;;;;;;4.57;3.10;;;23.30;88.20;;;;;;4135296;28;20080;-68
2021/09/12 09:10:19;;;;;;;7.25;4.05;;;23.50;87.80;;;;;;4135379;28;20072;-68
2021/09/12 09:12:35;;;;;;;7.43;3.95;;;23.60;87.30;;;;;;4134803;28;20394;-68
2021/09/12 09:14:36;;;;;;;9.38;4.47;;;23.60;86.50;;;;;;4134897;28;20105;-68
2021/09/12 09:16:37;;;;;;;7.57;4.65;;;23.60;87.00;;;;;;4134416;28;20482;-67
2021/09/12 09:18:40;;;;;;;9.45;3.72;;;23.30;87.20;;;;;;4132879;28;20037;-68
2021/09/12 09:20:42;;;;;;;6.30;3.88;;;23.20;87.40;;;;;;4133735;28;20088;-68
2021/09/12 09:22:45;;;;;;;5.72;3.00;;;23.20;87.40;;;;;;4134133;28;20410;-69
2021/09/12 09:24:46;;;;;;;5.97;3.38;;;23.20;87.20;;;;;;4133920;28;20084;-67
2021/09/12 09:26:59;;;;;;;7.40;3.20;;;23.30;87.30;;;;;;4133405;28;20095;-68
2021/09/12 09:29:01;;;;;;;7.03;3.65;;;23.30;85.60;;;;;;4133874;28;20034;-70
2021/09/12 09:31:08;;;;;;;5.15;3.45;;;23.40;86.20;;;;;;4134956;28;20722;-68
2021/09/12 09:33:19;;;;;;;7.45;3.22;;;23.50;85.20;;;;;;4133346;28;20049;-69
2021/09/12 09:35:25;;;;;;;5.32;3.13;;;23.40;85.50;;;;;;4133902;28;20034;-69
2021/09/12 09:37:26;;;;;;;5.78;3.40;;;23.50;85.10;;;;;;4134255;28;20054;-68
2021/09/12 09:39:55;;;;;;;5.30;3.42;;;23.40;85.00;;;;;;4138333;28;20046;-69
2021/09/12 09:41:56;;;;;;;5.22;3.47;;;23.20;85.00;;;;;;4136336;28;20383;-70
2021/09/12 09:43:57;;;;;;;4.78;3.35;;;23.20;85.00;;;;;;4136226;28;20076;-69
2021/09/12 09:45:58;;;;;;;6.10;3.58;;;23.30;84.90;;;;;;4137648;28;20498;-69
2021/09/12 09:48:12;;;;;;;6.35;3.63;;;23.50;84.90;;;;;;4142082;28;20100;-69
2021/09/12 09:50:22;;;;;;;6.10;3.78;;;23.70;83.30;;;;;;4141754;28;20041;-69
2021/09/12 09:52:23;;;;;;;4.80;3.58;;;23.70;83.50;;;;;;4141636;28;20088;-69
2021/09/12 09:54:26;;;;;;;8.07;3.78;;;23.50;83.70;;;;;;4141534;28;20115;-69
2021/09/12 09:56:29;;;;;;;4.95;3.50;;;23.50;84.70;;;;;;4141880;28;20026;-69
2021/09/12 09:58:32;;;;;;;4.32;3.33;;;23.50;84.00;;;;;;4142173;28;20459;-69
2021/09/12 10:00:33;;;;;;;6.07;3.92;;;23.40;83.70;;;;;;4142159;28;20748;-69
2021/09/12 10:02:35;;;;;;;6.22;3.72;;;23.40;83.90;;;;;;4141497;28;20100;-69
2021/09/12 10:04:38;;;;;;;5.68;3.35;;;23.40;84.10;;;;;;4142634;28;21044;-69
2021/09/12 10:06:41;;;;;;;7.68;4.07;;;23.70;84.30;;;;;;4141046;28;20506;-69
2021/09/12 10:08:44;;;;;;;3.88;3.47;;;23.80;83.60;;;;;;4141351;28;20460;-68
2021/09/12 10:10:45;;;;;;;4.15;3.03;;;23.80;83.60;;;;;;4141944;28;20022;-68
2021/09/12 10:12:56;;;;;;;4.35;3.20;;;23.80;83.50;;;;;;4142573;28;20092;-69
2021/09/12 10:14:58;;;;;;;;;;;24.00;83.80;;;;;;4141819;28;20037;-68
2021/09/12 10:17:01;;;;;;;5.80;2.92;;;24.30;83.10;;;;;;4141644;28;19968;-69
2021/09/12 10:19:02;;;;;;;4.50;2.88;;;24.50;83.30;;;;;;4141733;28;20437;-70
2021/09/12 10:21:23;;;;;;;5.10;3.88;;;24.70;83.10;;;;;;4141878;28;20037;-69
2021/09/12 10:23:27;;;;;;;5.22;3.05;;;25.00;81.20;;;;;;4141663;28;20363;-69
2021/09/12 10:25:33;;;;;;;4.35;3.30;;;25.00;81.50;;;;;;4141639;28;20115;-67
2021/09/12 10:27:43;;;;;;;4.47;3.40;;;24.60;81.80;;;;;;4139863;28;20064;-74
2021/09/12 10:29:50;;;;;;;4.32;3.92;;;24.40;81.60;;;;;;4141538;28;20760;-67
2021/09/12 10:31:51;;;;;;;4.40;2.95;;;24.20;82.10;;;;;;4141209;28;20719;-69